Time;durP1;ratioP1;P1;durP2;ratioP2;P2;SDS_P1;SDS_P2;PMS_P1;PMS_P2;Temp;Humidity;BMP_temperature;BMP_pressure;BME280_temperature;BME280_humidity;BME280_pressure;Samples;Min_cycle;Max_cycle;Signal;HPM_P1;HPM_P2
2022/06/15 00:02:03;;;;;;;3.45;1.63;;;;;;;14.04;54.37;101502.66;7397924;19;20086;-67
2022/06/15 00:04:35;;;;;;;5.28;1.73;;;;;;;13.97;54.33;101500.16;7396133;19;20371;-67
2022/06/15 00:07:03;;;;;;;3.35;1.63;;;;;;;13.94;54.49;101502.00;7396963;19;20029;-67
2022/06/15 00:09:32;;;;;;;2.67;1.20;;;;;;;13.90;54.53;101498.59;7393762;19;20014;-67
2022/06/15 00:12:02;;;;;;;2.42;1.45;;;;;;;13.87;54.74;101500.44;7397716;19;20014;-67
2022/06/15 00:14:32;;;;;;;5.07;1.40;;;;;;;13.82;54.85;101500.53;7397241;19;20014;-67
2022/06/15 00:17:00;;;;;;;2.70;1.40;;;;;;;13.77;54.84;101497.97;7398348;19;20015;-67
2022/06/15 00:19:29;;;;;;;2.85;1.70;;;;;;;13.72;54.89;101493.72;7398073;19;20047;-67
2022/06/15 00:22:00;;;;;;;3.50;1.85;;;;;;;13.69;55.09;101492.88;7395743;19;20015;-67
2022/06/15 00:24:29;;;;;;;3.95;1.55;;;;;;;13.64;55.44;101496.53;7397725;19;20484;-67
2022/06/15 00:26:58;;;;;;;4.50;1.60;;;;;;;13.60;55.46;101497.53;7398063;19;20019;-67
2022/06/15 00:29:26;;;;;;;3.78;1.67;;;;;;;13.56;55.63;101496.72;7396199;19;20031;-67
2022/06/15 00:31:55;;;;;;;3.92;2.03;;;;;;;13.51;55.60;101501.22;7395367;19;20015;-67
2022/06/15 00:34:23;;;;;;;4.05;1.40;;;;;;;13.44;55.72;101497.84;7396425;19;20014;-67
2022/06/15 00:36:52;;;;;;;2.53;1.73;;;;;;;13.39;55.87;101497.06;7395814;19;20011;-67
2022/06/15 00:39:23;;;;;;;4.38;2.17;;;;;;;13.33;56.00;101500.69;7395378;19;20010;-67
2022/06/15 00:41:52;;;;;;;5.63;1.85;;;;;;;13.28;56.07;101501.66;7397068;19;20031;-67
2022/06/15 00:44:36;;;;;;;9.23;2.47;;;;;;;13.22;56.24;101491.25;7395429;19;20031;-67
2022/06/15 00:47:12;;;;;;;4.72;1.85;;;;;;;13.13;56.31;101493.19;7397775;19;20015;-67
2022/06/15 00:49:51;;;;;;;5.13;1.90;;;;;;;13.10;56.25;101492.38;7395330;19;20007;-67
2022/06/15 00:52:32;;;;;;;7.18;1.88;;;;;;;13.04;56.40;101499.53;7396180;19;20410;-67
2022/06/15 00:55:08;;;;;;;3.75;2.00;;;;;;;12.98;56.41;101489.09;7395395;19;20485;-67
2022/06/15 00:57:37;;;;;;;4.53;2.17;;;;;;;12.93;56.52;101495.34;7395608;19;20019;-66
2022/06/15 01:00:11;;;;;;;7.75;2.30;;;;;;;12.87;56.73;101489.28;7396421;19;20018;-67
2022/06/15 01:02:41;;;;;;;3.78;2.20;;;;;;;12.80;56.78;101482.44;7395764;19;20035;-67
2022/06/15 01:05:14;;;;;;;4.28;2.00;;;;;;;12.75;56.99;101480.78;7396734;19;20014;-67
2022/06/15 01:08:17;;;;;;;5.95;2.17;;;;;;;12.68;57.07;101480.03;7397139;19;20024;-67
2022/06/15 01:11:19;;;;;;;6.00;2.28;;;;;;;12.61;57.35;101481.91;7396199;19;20027;-67
2022/06/15 01:14:35;;;;;;;4.68;2.17;;;;;;;12.54;57.39;101478.50;7395827;19;20014;-67
2022/06/15 01:17:14;;;;;;;2.50;1.70;;;;;;;12.49;57.40;101483.00;7393022;19;20026;-67
2022/06/15 01:20:15;;;;;;;4.63;2.08;;;;;;;12.43;57.66;101469.94;7394024;19;20027;-67
2022/06/15 01:23:18;;;;;;;3.50;2.03;;;;;;;12.37;57.78;101481.47;7394101;19;20414;-67
2022/06/15 01:25:53;;;;;;;6.78;2.50;;;;;;;12.31;57.90;101481.56;7393235;19;20031;-67
2022/06/15 01:28:42;;;;;;;5.35;2.10;;;;;;;12.27;58.01;101481.63;7395812;19;20018;-67
2022/06/15 01:31:22;;;;;;;3.95;2.25;;;;;;;12.24;58.19;101479.06;7393847;19;20014;-67
2022/06/15 01:34:04;;;;;;;6.78;2.60;;;;;;;12.20;58.24;101479.09;7395359;19;20014;-67
2022/06/15 01:36:44;;;;;;;3.90;2.13;;;;;;;12.16;58.45;101482.69;7394261;19;20028;-67
2022/06/15 01:39:20;;;;;;;5.75;2.20;;;;;;;12.12;58.60;101475.75;7396220;19;20039;-67
2022/06/15 01:41:54;;;;;;;2.90;2.60;;;;;;;12.10;58.74;101481.94;7394834;19;20034;-67
2022/06/15 01:44:27;;;;;;;6.35;2.25;;;;;;;12.06;58.79;101476.69;7396001;19;20018;-67
2022/06/15 01:47:02;;;;;;;3.78;2.40;;;;;;;12.03;58.94;101473.25;7395280;19;20023;-67
2022/06/15 01:49:36;;;;;;;3.67;2.08;;;;;;;11.99;58.86;101476.81;7393937;19;20019;-67
2022/06/15 01:52:08;;;;;;;6.03;2.00;;;;;;;11.94;59.05;101473.38;7394910;19;20025;-67
2022/06/15 01:54:42;;;;;;;4.43;2.03;;;;;;;11.89;59.12;101474.31;7394050;19;20026;-67
2022/06/15 01:57:12;;;;;;;6.35;2.30;;;;;;;11.84;59.22;101465.63;7395572;19;20021;-67
2022/06/15 01:59:48;;;;;;;4.38;2.03;;;;;;;11.80;59.36;101468.31;7395581;19;20033;-67
2022/06/15 02:02:24;;;;;;;4.45;2.13;;;;;;;11.76;59.64;101466.63;7393018;19;20015;-67
2022/06/15 02:05:00;;;;;;;3.55;2.25;;;;;;;11.71;59.79;101469.31;7394687;19;20037;-67
2022/06/15 02:07:34;;;;;;;5.53;2.70;;;;;;;11.66;59.90;101466.75;7392858;19;20503;-67
2022/06/15 02:10:09;;;;;;;3.40;2.25;;;;;;;11.63;59.99;101460.69;7395312;19;20028;-67
2022/06/15 02:12:42;;;;;;;5.15;2.03;;;;;;;11.60;60.13;101466.00;7395366;19;20021;-68
2022/06/15 02:15:14;;;;;;;3.90;2.13;;;;;;;11.56;60.25;101462.53;7394238;19;20387;-68
2022/06/15 02:17:49;;;;;;;3.42;2.40;;;;;;;11.53;60.49;101463.44;7395506;19;20036;-67
2022/06/15 02:20:22;;;;;;;7.85;2.53;;;;;;;11.48;60.48;101457.38;7395044;19;20011;-67
2022/06/15 02:22:53;;;;;;;3.53;2.15;;;;;;;11.46;60.54;101459.19;7392676;19;20391;-67
2022/06/15 02:25:27;;;;;;;2.60;2.00;;;;;;;11.41;60.77;101451.34;7392094;19;20032;-67
2022/06/15 02:27:56;;;;;;;2.63;2.30;;;;;;;11.40;60.75;101454.00;7392123;19;20014;-67
2022/06/15 02:30:27;;;;;;;4.25;2.53;;;;;;;11.36;60.89;101458.44;7394213;19;20036;-67
2022/06/15 02:33:04;;;;;;;4.45;2.45;;;;;;;11.34;61.11;101448.84;7393982;19;20015;-67
2022/06/15 02:35:32;;;;;;;4.38;2.38;;;;;;;11.29;61.18;101450.66;7398090;19;20018;-67
2022/06/15 02:38:01;;;;;;;6.13;2.50;;;;;;;11.25;61.34;101453.31;7400769;19;20015;-67
2022/06/15 02:40:29;;;;;;;3.72;2.13;;;;;;;11.21;61.34;101445.50;7398642;19;20035;-67
2022/06/15 02:42:58;;;;;;;3.25;2.00;;;;;;;11.17;61.54;101442.06;7398305;19;20494;-67
2022/06/15 02:45:31;;;;;;;5.32;2.22;;;;;;;11.13;61.66;101449.97;7398743;19;20029;-67
2022/06/15 02:48:02;;;;;;;4.75;2.45;;;;;;;11.11;61.69;101446.50;7401119;19;20501;-67
2022/06/15 02:50:34;;;;;;;4.30;2.17;;;;;;;11.07;61.78;101456.19;7399006;19;20023;-67
2022/06/15 02:53:07;;;;;;;5.38;2.25;;;;;;;11.02;61.81;101452.72;7398064;19;20035;-67
2022/06/15 02:55:38;;;;;;;4.65;2.60;;;;;;;11.01;62.05;101465.00;7399779;19;20022;-67
2022/06/15 02:58:09;;;;;;;5.13;2.63;;;;;;;10.98;62.20;101461.53;7399283;19;20032;-67
2022/06/15 03:00:38;;;;;;;3.63;2.75;;;;;;;10.91;62.65;101464.22;7401408;19;20014;-67
2022/06/15 03:03:10;;;;;;;6.43;3.38;;;;;;;10.76;63.03;101453.91;7398529;19;20022;-67
2022/06/15 03:05:38;;;;;;;5.43;3.00;;;;;;;10.68;63.20;101463.63;7401226;19;20019;-67
2022/06/15 03:08:07;;;;;;;5.90;2.80;;;;;;;10.60;63.56;101471.56;7397728;19;20010;-67
2022/06/15 03:10:36;;;;;;;5.20;2.88;;;;;;;10.53;63.89;101470.78;7400197;19;20027;-67
2022/06/15 03:13:04;;;;;;;5.13;3.25;;;;;;;10.45;63.95;101464.75;7398324;19;20018;-68
2022/06/15 03:15:33;;;;;;;5.97;3.00;;;;;;;10.37;64.22;101469.19;7397499;19;20011;-68
2022/06/15 03:18:01;;;;;;;4.32;3.20;;;;;;;10.33;64.17;101465.69;7400247;19;20020;-68
2022/06/15 03:20:32;;;;;;;3.55;3.22;;;;;;;10.30;64.54;101468.34;7399976;19;20485;-68
2022/06/15 03:23:01;;;;;;;7.25;3.50;;;;;;;10.25;64.60;101468.38;7397829;19;20046;-67
2022/06/15 03:25:30;;;;;;;5.47;3.20;;;;;;;10.22;64.81;101468.41;7397522;19;20011;-67
2022/06/15 03:27:58;;;;;;;7.38;3.13;;;;;;;10.18;64.89;101469.31;7399794;19;20022;-67
2022/06/15 03:30:27;;;;;;;6.25;3.38;;;;;;;10.17;65.07;101467.56;7399720;19;20014;-68
2022/06/15 03:32:56;;;;;;;4.07;2.88;;;;;;;10.15;65.09;101466.72;7396997;19;20022;-67
2022/06/15 03:35:34;;;;;;;6.13;3.05;;;;;;;10.15;65.34;101471.97;7398208;19;20043;-67
2022/06/15 03:38:08;;;;;;;7.70;2.95;;;;;;;10.14;65.29;101475.47;7399446;19;20019;-67
2022/06/15 03:40:37;;;;;;;4.43;3.20;;;;;;;10.13;65.26;101471.09;7399594;19;20011;-68
2022/06/15 03:43:06;;;;;;;3.00;2.65;;;;;;;10.13;65.28;101476.34;7396779;19;20018;-67
2022/06/15 03:45:35;;;;;;;4.43;3.28;;;;;;;10.12;65.53;101469.34;7398484;19;20380;-67
2022/06/15 03:48:04;;;;;;;5.93;3.53;;;;;;;10.14;65.36;101471.97;7398862;19;20424;-67
2022/06/15 03:50:36;;;;;;;4.85;3.00;;;;;;;10.15;65.41;101463.22;7396892;19;20014;-68
2022/06/15 03:53:09;;;;;;;7.55;2.95;;;;;;;10.17;65.33;101467.56;7396208;19;20025;-67
2022/06/15 03:55:38;;;;;;;4.43;2.95;;;;;;;10.15;65.27;101460.59;7397705;19;20018;-68
2022/06/15 03:58:07;;;;;;;5.88;3.22;;;;;;;10.23;65.42;101461.41;7399106;19;20118;-67
2022/06/15 04:00:36;;;;;;;7.28;3.30;;;;;;;10.25;65.46;101463.13;7398692;19;20505;-68
2022/06/15 04:03:05;;;;;;;3.13;2.85;;;;;;;10.28;65.31;101468.34;7396307;19;20018;-67
2022/06/15 04:05:37;;;;;;;5.85;3.10;;;;;;;10.32;65.36;101458.69;7398295;19;20019;-67
2022/06/15 04:10:50;;;;;;;9.02;3.70;;;;;;;10.40;65.30;101454.28;7398269;19;20017;-68
2022/06/15 04:13:21;;;;;;;4.72;3.35;;;;;;;10.45;65.14;101456.88;7395406;19;20015;-67
2022/06/15 04:15:51;;;;;;;5.43;3.60;;;;;;;10.50;65.20;101465.56;7396696;19;20502;-67
2022/06/15 04:18:20;;;;;;;6.15;3.47;;;;;;;10.56;65.23;101469.88;7397497;19;20548;-68
2022/06/15 04:20:48;;;;;;;5.07;3.97;;;;;;;10.61;65.18;101467.22;7395283;19;20051;-69
2022/06/15 04:23:21;;;;;;;9.13;3.65;;;;;;;10.66;65.01;101454.91;7395879;19;20019;-67
2022/06/15 04:25:52;;;;;;;5.88;3.35;;;;;;;10.72;64.90;101460.09;7395286;19;20489;-69
2022/06/15 04:28:23;;;;;;;4.63;2.92;;;;;;;10.76;64.92;101456.53;7397724;19;20066;-68
2022/06/15 04:30:51;;;;;;;6.13;2.95;;;;;;;10.81;64.99;101465.22;7395746;19;20167;-67
2022/06/15 04:33:22;;;;;;;7.13;3.22;;;;;;;10.86;64.77;101458.16;7394980;19;20019;-68
2022/06/15 04:35:50;;;;;;;3.55;2.67;;;;;;;10.91;64.72;101469.47;7396395;19;20039;-67
2022/06/15 04:38:21;;;;;;;5.28;2.90;;;;;;;10.97;64.87;101463.31;7397270;19;20014;-68
2022/06/15 04:40:50;;;;;;;4.63;3.08;;;;;;;11.02;64.80;101460.59;7395178;19;20082;-66
2022/06/15 04:43:19;;;;;;;6.28;2.53;;;;;;;11.06;64.77;101463.19;7395080;19;20031;-67
2022/06/15 04:45:47;;;;;;;5.20;2.95;;;;;;;11.13;64.77;101466.59;7397255;19;20019;-67
2022/06/15 04:48:16;;;;;;;6.05;2.97;;;;;;;11.17;64.61;101459.56;7395452;19;20031;-68
2022/06/15 04:50:45;;;;;;;9.77;3.20;;;;;;;11.26;64.42;101467.34;7393912;19;20010;-67
2022/06/15 04:53:13;;;;;;;4.78;3.30;;;;;;;11.31;64.37;101462.88;7395110;19;20073;-66
2022/06/15 04:55:45;;;;;;;4.47;3.45;;;;;;;11.38;64.29;101467.16;7393990;19;20015;-67
2022/06/15 04:58:13;;;;;;;6.30;4.22;;;;;;;11.44;64.14;101458.31;7397041;19;20094;-67
2022/06/15 05:00:46;;;;;;;5.07;4.00;;;;;;;11.50;64.02;101453.00;7394146;19;20086;-67
2022/06/15 05:03:14;;;;;;;5.10;4.10;;;;;;;11.60;63.93;101458.09;7394581;19;20019;-67
2022/06/15 05:05:43;;;;;;;5.25;4.18;;;;;;;11.66;63.83;101458.00;7394376;19;20022;-67
2022/06/15 05:08:11;;;;;;;8.98;5.05;;;;;;;11.73;63.71;101465.78;7391719;19;20022;-68
2022/06/15 05:10:40;;;;;;;9.80;5.57;;;;;;;11.79;63.69;101456.06;7393585;19;20036;-68
2022/06/15 05:13:11;;;;;;;6.65;5.53;;;;;;;11.86;63.50;101458.56;7393601;19;20014;-67
2022/06/15 05:15:40;;;;;;;7.90;4.63;;;;;;;11.93;63.39;101462.00;7394330;19;20086;-68
2022/06/15 05:18:11;;;;;;;6.20;4.57;;;;;;;12.00;63.27;101454.91;7394312;19;20047;-67
2022/06/15 05:20:41;;;;;;;12.25;7.65;;;;;;;12.05;63.13;101447.78;7394136;19;20136;-67
2022/06/15 05:23:09;;;;;;;9.23;5.65;;;;;;;12.13;63.07;101450.28;7393245;19;20095;-67
2022/06/15 05:25:39;;;;;;;6.45;4.85;;;;;;;12.22;62.96;101458.06;7394695;19;20028;-68
2022/06/15 05:28:12;;;;;;;8.25;5.50;;;;;;;12.30;62.86;101453.50;7395441;19;20361;-67
2022/06/15 05:30:41;;;;;;;9.27;5.00;;;;;;;12.38;62.79;101448.09;7395484;19;20014;-68
2022/06/15 05:33:10;;;;;;;6.82;5.07;;;;;;;12.46;62.68;101448.84;7393796;19;20035;-68
2022/06/15 05:35:38;;;;;;;6.15;4.70;;;;;;;12.55;62.41;101448.66;7393909;19;20086;-68
2022/06/15 05:38:07;;;;;;;6.97;4.88;;;;;;;12.64;62.38;101445.00;7392511;19;20383;-67
2022/06/15 05:40:36;;;;;;;8.40;5.20;;;;;;;12.73;62.33;101446.59;7393145;19;20018;-66
2022/06/15 05:43:05;;;;;;;6.60;4.75;;;;;;;12.82;62.19;101456.06;7392744;19;20039;-69
2022/06/15 05:45:36;;;;;;;8.93;4.68;;;;;;;12.92;62.09;101457.63;7394268;19;20032;-66
2022/06/15 05:48:04;;;;;;;7.20;4.90;;;;;;;13.01;62.07;101452.16;7394572;19;20099;-66
2022/06/15 05:50:34;;;;;;;7.45;5.03;;;;;;;13.10;61.84;101448.47;7392898;19;20082;-67
2022/06/15 05:53:02;;;;;;;6.85;5.22;;;;;;;13.18;61.69;101453.56;7393448;19;20038;-67
2022/06/15 05:55:31;;;;;;;6.97;5.10;;;;;;;13.26;61.57;101454.28;7394377;19;20498;-68
2022/06/15 05:57:59;;;;;;;9.20;5.05;;;;;;;13.34;61.42;101454.09;7394550;19;20513;-67
2022/06/15 06:00:28;;;;;;;8.00;5.07;;;;;;;13.42;61.43;101454.84;7394375;19;20372;-68
2022/06/15 06:02:59;;;;;;;5.97;5.05;;;;;;;13.52;61.21;101453.75;7392799;19;20026;-68
2022/06/15 06:05:28;;;;;;;8.15;5.72;;;;;;;13.61;61.14;101457.94;7391738;19;20410;-67
2022/06/15 06:07:56;;;;;;;5.85;5.13;;;;;;;13.70;61.03;101456.84;7395919;19;20025;-66
2022/06/15 06:10:25;;;;;;;5.82;5.22;;;;;;;13.76;60.73;101454.06;7401819;19;20031;-67
2022/06/15 06:12:53;;;;;;;9.40;5.00;;;;;;;13.87;60.53;101455.59;7399656;19;20014;-67
2022/06/15 06:15:29;;;;;;;7.15;4.93;;;;;;;13.97;60.62;101457.09;7398010;19;20428;-67
2022/06/15 06:18:02;;;;;;;6.32;4.25;;;;;;;14.06;60.02;101456.00;7401801;19;20018;-67
2022/06/15 06:20:31;;;;;;;8.30;4.50;;;;;;;14.15;59.80;101454.00;7400906;19;20037;-67
2022/06/15 06:22:59;;;;;;;6.93;4.35;;;;;;;14.25;59.68;101456.41;7398178;19;20508;-66
2022/06/15 06:25:28;;;;;;;11.35;4.68;;;;;;;14.36;59.50;101457.00;7400791;19;20082;-66
2022/06/15 06:27:56;;;;;;;8.63;4.20;;;;;;;14.45;59.19;101458.53;7401712;19;20105;-67
2022/06/15 06:30:25;;;;;;;7.22;3.90;;;;;;;14.55;59.04;101451.22;7401271;19;20143;-67
2022/06/15 06:32:53;;;;;;;6.80;3.50;;;;;;;14.66;58.66;101452.69;7398681;19;20035;-66
2022/06/15 06:35:31;;;;;;;4.13;2.65;;;;;;;14.77;58.44;101449.75;7400659;19;20039;-66
2022/06/15 06:37:59;;;;;;;6.75;2.90;;;;;;;14.89;57.55;101461.75;7398149;19;20018;-66
2022/06/15 06:40:28;;;;;;;17.45;2.95;;;;;;;14.98;57.30;101453.53;7399978;19;20032;-66
2022/06/15 06:42:57;;;;;;;10.50;2.97;;;;;;;15.13;56.99;101448.75;7397785;19;20395;-66
2022/06/15 06:45:26;;;;;;;6.90;3.30;;;;;;;15.26;56.37;101446.59;7397068;19;20082;-67
2022/06/15 06:47:56;;;;;;;4.60;2.55;;;;;;;15.38;55.89;101438.28;7400933;19;20018;-67
2022/06/15 06:50:27;;;;;;;6.30;2.40;;;;;;;15.51;54.98;101445.84;7398434;19;20011;-66
2022/06/15 06:52:56;;;;;;;4.40;2.25;;;;;;;15.63;55.02;101440.16;7398167;19;20418;-66
2022/06/15 06:55:28;;;;;;;7.78;2.30;;;;;;;15.76;54.55;101443.28;7397500;19;20010;-66
2022/06/15 06:57:57;;;;;;;3.92;1.60;;;;;;;15.89;54.03;101435.84;7400393;19;20014;-66
2022/06/15 07:00:26;;;;;;;8.50;2.17;;;;;;;16.02;53.70;101447.72;7397550;19;20015;-66
2022/06/15 07:02:55;;;;;;;4.95;1.80;;;;;;;16.15;53.06;101448.22;7397862;19;20022;-67
2022/06/15 07:05:23;;;;;;;3.75;1.77;;;;;;;16.29;52.49;101453.03;7401041;19;20070;-67
2022/06/15 07:07:54;;;;;;;9.23;2.17;;;;;;;16.44;51.87;101448.97;7400029;19;20081;-68
2022/06/15 07:10:25;;;;;;;6.50;1.90;;;;;;;16.57;51.44;101452.06;7397214;19;20078;-67
2022/06/15 07:12:54;;;;;;;5.97;2.42;;;;;;;16.69;51.13;101448.97;7397786;19;20011;-66
2022/06/15 07:15:23;;;;;;;4.38;1.65;;;;;;;16.81;50.82;101438.81;7399407;19;20036;-67
2022/06/15 07:17:51;;;;;;;5.05;1.90;;;;;;;16.91;50.11;101438.47;7396679;19;20014;-67
2022/06/15 07:20:20;;;;;;;7.03;3.58;;;;;;;17.03;49.63;101445.09;7398237;19;20074;-66
2022/06/15 07:22:49;;;;;;;4.32;2.00;;;;;;;17.15;49.65;101437.59;7396689;19;20018;-65
2022/06/15 07:25:20;;;;;;;4.90;1.50;;;;;;;17.24;48.80;101435.47;7396343;19;20035;-66
2022/06/15 07:27:50;;;;;;;8.38;1.90;;;;;;;17.35;48.57;101434.19;7399127;19;20018;-67
2022/06/15 07:30:22;;;;;;;4.75;1.48;;;;;;;17.46;48.19;101436.41;7399333;19;20024;-66
2022/06/15 07:32:51;;;;;;;5.97;1.63;;;;;;;17.52;47.83;101436.19;7397080;19;20423;-67
2022/06/15 07:35:22;;;;;;;2.88;1.13;;;;;;;17.64;47.67;101433.03;7395905;19;20488;-66
2022/06/15 07:37:51;;;;;;;4.78;1.30;;;;;;;17.74;47.82;101428.19;7396264;19;20509;-66
2022/06/15 07:40:24;;;;;;;5.47;1.77;;;;;;;17.83;47.18;101435.81;7398086;19;20073;-66
2022/06/15 07:42:54;;;;;;;8.65;2.20;;;;;;;17.91;47.26;101423.06;7396691;19;20018;-66
2022/06/15 07:45:25;;;;;;;5.47;2.15;;;;;;;17.99;46.87;101425.41;7398775;19;20014;-67
2022/06/15 07:50:35;;;;;;;5.75;1.70;;;;;;;18.18;46.65;101427.31;7396946;19;20381;-67
2022/06/15 07:53:06;;;;;;;7.47;1.52;;;;;;;18.27;45.86;101426.91;7395726;19;20032;-68
2022/06/15 07:55:41;;;;;;;4.53;1.42;;;;;;;18.32;45.66;101416.09;7399166;19;20018;-67
2022/06/15 07:58:10;;;;;;;4.13;1.35;;;;;;;18.44;45.49;101425.28;7395733;19;20014;-67
2022/06/15 08:00:41;;;;;;;5.32;1.50;;;;;;;18.54;45.24;101421.31;7398826;19;20018;-67
2022/06/15 08:03:11;;;;;;;4.78;1.60;;;;;;;18.64;44.99;101417.31;7396456;19;20090;-67
2022/06/15 08:05:44;;;;;;;3.15;1.13;;;;;;;18.72;44.51;101419.63;7398456;19;20078;-67
2022/06/15 08:08:19;;;;;;;4.32;1.25;;;;;;;18.81;44.03;101424.50;7398720;19;20022;-67
2022/06/15 08:10:50;;;;;;;4.03;1.75;;;;;;;18.91;44.44;101430.31;7398699;19;20035;-68
2022/06/15 08:13:21;;;;;;;7.05;1.77;;;;;;;18.99;43.93;101419.31;7395633;19;20015;-66
2022/06/15 08:15:51;;;;;;;4.13;1.88;;;;;;;19.09;43.59;101417.09;7398233;19;20014;-67
2022/06/15 08:18:23;;;;;;;2.55;1.25;;;;;;;19.18;43.36;101416.66;7395676;19;20018;-66
2022/06/15 08:20:56;;;;;;;3.03;0.95;;;;;;;19.27;42.99;101408.25;7395760;19;20035;-66
2022/06/15 08:23:28;;;;;;;2.72;1.05;;;;;;;19.36;42.72;101410.47;7395204;19;20078;-66
2022/06/15 08:26:02;;;;;;;4.97;1.73;;;;;;;19.44;42.28;101404.78;7394784;19;20035;-65
2022/06/15 08:28:35;;;;;;;3.22;1.42;;;;;;;19.49;42.22;101396.56;7397707;19;20018;-66
2022/06/15 08:31:04;;;;;;;6.72;1.48;;;;;;;19.60;42.01;101396.91;7395470;19;20014;-66
2022/06/15 08:33:33;;;;;;;4.65;2.20;;;;;;;19.69;42.00;101396.44;7395375;19;20006;-66
2022/06/15 08:36:01;;;;;;;3.47;1.50;;;;;;;19.77;41.77;101388.06;7394535;19;20537;-66
2022/06/15 08:38:30;;;;;;;3.58;1.50;;;;;;;19.83;41.46;101382.47;7394599;19;20485;-66
2022/06/15 08:41:07;;;;;;;5.00;1.75;;;;;;;19.91;40.82;101384.75;7396729;19;20015;-66
2022/06/15 08:43:50;;;;;;;5.25;1.30;;;;;;;19.98;40.81;101387.94;7396741;19;20412;-66
2022/06/15 08:46:28;;;;;;;1.95;0.90;;;;;;;20.05;41.13;101383.19;7395681;19;20042;-64
2022/06/15 08:49:10;;;;;;;5.47;1.52;;;;;;;20.13;40.67;101375.63;7396845;19;20028;-65
2022/06/15 08:51:42;;;;;;;5.07;1.55;;;;;;;20.20;40.97;101378.88;7394301;19;20010;-65
2022/06/15 08:54:17;;;;;;;4.75;1.30;;;;;;;20.29;40.08;101373.91;7395620;19;20019;-66
2022/06/15 08:56:54;;;;;;;3.88;1.38;;;;;;;20.38;39.67;101377.88;7395153;19;20018;-66
2022/06/15 08:59:30;;;;;;;5.55;1.90;;;;;;;20.43;39.94;101375.81;7397030;19;20369;-66
2022/06/15 09:02:07;;;;;;;3.70;1.20;;;;;;;20.44;39.52;101372.22;7395092;19;20023;-67
2022/06/15 09:04:43;;;;;;;4.32;1.20;;;;;;;20.49;39.00;101372.00;7397079;19;20035;-67
2022/06/15 09:07:23;;;;;;;4.85;1.90;;;;;;;20.56;39.01;101376.06;7396133;19;20017;-67
2022/06/15 09:10:09;;;;;;;5.60;1.20;;;;;;;20.63;38.97;101380.09;7395151;19;20018;-67
2022/06/15 09:12:58;;;;;;;3.58;1.30;;;;;;;20.70;39.15;101379.75;7394597;19;20361;-67
2022/06/15 09:15:44;;;;;;;5.70;2.00;;;;;;;20.75;38.67;101372.41;7396610;19;20015;-67
2022/06/15 09:18:20;;;;;;;5.68;2.38;;;;;;;20.79;38.73;101366.81;7394643;19;20380;-66
2022/06/15 09:20:52;;;;;;;2.75;1.60;;;;;;;20.83;38.40;101370.19;7394594;19;20035;-67
2022/06/15 09:23:34;;;;;;;2.80;1.23;;;;;;;20.85;38.06;101360.28;7394069;19;20023;-67
2022/06/15 09:26:09;;;;;;;3.00;1.00;;;;;;;20.87;38.05;101366.41;7394601;19;20024;-66
2022/06/15 09:28:46;;;;;;;3.20;1.20;;;;;;;20.88;37.36;101370.78;7395429;19;20029;-66
2022/06/15 09:31:23;;;;;;;3.13;1.30;;;;;;;20.91;38.06;101364.44;7395824;19;20019;-67
2022/06/15 09:33:55;;;;;;;5.07;1.48;;;;;;;20.96;37.41;101360.53;7393407;19;20019;-68
2022/06/15 09:36:26;;;;;;;8.20;1.38;;;;;;;21.01;37.90;101360.28;7393106;19;20074;-67
2022/06/15 09:38:54;;;;;;;6.80;1.77;;;;;;;21.06;38.03;101360.91;7393899;19;20028;-67
2022/06/15 09:41:29;;;;;;;3.60;1.40;;;;;;;21.11;37.22;101356.16;7391224;19;20030;-68
2022/06/15 09:44:12;;;;;;;4.50;1.60;;;;;;;21.16;37.37;101356.75;7392981;19;20019;-66
2022/06/15 09:46:50;;;;;;;4.03;1.60;;;;;;;21.22;37.57;101360.91;7393499;19;20332;-66
2022/06/15 09:49:35;;;;;;;2.22;1.27;;;;;;;21.29;37.37;101361.41;7393793;19;20031;-68
2022/06/15 09:52:10;;;;;;;6.50;1.38;;;;;;;21.35;37.11;101361.06;7393374;19;20039;-67
2022/06/15 09:54:48;;;;;;;2.85;1.55;;;;;;;21.37;36.22;101352.94;7393561;19;20022;-67
2022/06/15 09:57:17;;;;;;;2.88;1.42;;;;;;;21.42;36.81;101345.53;7392580;19;20070;-66
2022/06/15 09:59:48;;;;;;;5.18;1.20;;;;;;;21.47;36.95;101344.34;7394201;19;20031;-67
2022/06/15 10:02:22;;;;;;;3.92;1.88;;;;;;;21.55;36.71;101338.56;7392885;19;20094;-66
2022/06/15 10:04:51;;;;;;;3.17;1.42;;;;;;;21.63;36.50;101340.78;7394130;19;20015;-66
2022/06/15 10:07:28;;;;;;;4.50;1.42;;;;;;;21.75;36.50;101347.19;7393999;19;20078;-66
2022/06/15 10:10:00;;;;;;;4.68;1.63;;;;;;;21.82;35.99;101337.03;7394698;19;20111;-66
2022/06/15 10:13:03;;;;;;;4.38;1.23;;;;;;;21.90;36.01;101338.28;7392312;19;20018;-66
2022/06/15 10:15:38;;;;;;;4.72;1.15;;;;;;;21.99;35.84;101341.34;7394696;19;20139;-66
2022/06/15 10:18:26;;;;;;;5.03;1.60;;;;;;;22.05;35.47;101336.50;7392370;19;20111;-66
2022/06/15 10:21:07;;;;;;;3.45;1.75;;;;;;;22.11;35.16;101335.25;7394602;19;20023;-66
2022/06/15 10:23:50;;;;;;;4.97;1.10;;;;;;;22.22;35.56;101330.13;7393203;19;20011;-67
2022/06/15 10:26:29;;;;;;;3.10;1.30;;;;;;;22.31;35.67;101331.38;7394113;19;20083;-66
2022/06/15 10:28:59;;;;;;;7.65;1.58;;;;;;;22.37;35.40;101327.47;7394143;19;20035;-66
2022/06/15 10:31:33;;;;;;;6.25;1.20;;;;;;;22.42;34.72;101336.09;7391600;19;20019;-66
2022/06/15 10:34:21;;;;;;;4.65;1.55;;;;;;;22.44;34.72;101328.81;7390646;19;20502;-66
2022/06/15 10:36:55;;;;;;;5.32;1.75;;;;;;;22.48;35.23;101335.69;7393686;19;20071;-66
2022/06/15 10:39:28;;;;;;;2.78;0.98;;;;;;;22.53;35.16;101330.06;7390888;19;20513;-67
2022/06/15 10:42:02;;;;;;;3.77;1.43;;;;;;;22.58;34.75;101326.16;7392096;19;20031;-65
2022/06/15 10:44:34;;;;;;;5.68;1.58;;;;;;;22.67;34.72;101321.16;7391466;19;20019;-65
2022/06/15 10:47:07;;;;;;;6.32;3.80;;;;;;;22.76;34.21;101310.72;7394501;19;20015;-66
2022/06/15 10:49:38;;;;;;;2.63;1.20;;;;;;;22.88;34.40;101308.22;7391389;19;20018;-65
2022/06/15 10:52:20;;;;;;;3.13;1.63;;;;;;;23.00;33.85;101310.09;7390871;19;20494;-65
2022/06/15 11:03:13;;;;;;;6.78;1.35;;;;;;;23.34;33.13;101293.63;7397429;19;20019;-67
2022/06/15 11:05:42;;;;;;;5.30;1.50;;;;;;;23.50;33.22;101288.13;7397574;19;20022;-67
2022/06/15 11:08:18;;;;;;;3.30;1.10;;;;;;;23.65;33.27;101294.25;7397584;19;20022;-67
2022/06/15 11:10:49;;;;;;;4.03;1.33;;;;;;;23.78;32.56;101287.06;7397160;19;20015;-71
2022/06/15 11:13:37;;;;;;;4.18;2.15;;;;;;;23.89;31.56;101287.19;7395978;19;20506;-66
2022/06/15 11:19:08;;;;;;;5.88;1.85;;;;;;;24.06;32.20;101285.19;7397093;19;20027;-66
2022/06/15 11:21:43;;;;;;;4.50;1.90;;;;;;;24.12;31.79;101282.06;7396912;19;20022;-68
2022/06/15 11:24:24;;;;;;;4.18;1.40;;;;;;;24.22;31.75;101283.13;7399620;19;20036;-69
2022/06/15 11:27:01;;;;;;;3.85;1.10;;;;;;;24.33;31.51;101293.09;7396852;19;20031;-67
2022/06/15 11:29:52;;;;;;;2.70;1.38;;;;;;;24.44;31.18;101278.06;7399431;19;20022;-68
2022/06/15 11:32:39;;;;;;;1.30;0.93;;;;;;;24.54;31.24;101274.59;7396810;19;20011;-67
2022/06/15 11:35:23;;;;;;;3.10;1.17;;;;;;;24.69;31.11;101269.13;7397875;19;20086;-66
2022/06/15 11:37:57;;;;;;;4.45;1.10;;;;;;;24.85;31.21;101266.16;7395395;19;20040;-66
2022/06/15 11:40:35;;;;;;;3.50;1.67;;;;;;;25.01;30.94;101265.84;7398840;19;20027;-66
2022/06/15 11:43:05;;;;;;;3.40;1.58;;;;;;;25.21;30.35;101262.56;7396047;19;20011;-67
2022/06/15 11:45:52;;;;;;;3.33;1.05;;;;;;;25.40;30.39;101250.41;7396326;19;20015;-68
2022/06/15 11:48:33;;;;;;;4.45;1.70;;;;;;;25.58;30.06;101253.53;7398454;19;20111;-67
2022/06/15 11:51:15;;;;;;;5.80;1.73;;;;;;;25.82;29.69;101253.44;7396088;19;20411;-67
2022/06/15 11:53:57;;;;;;;3.75;1.63;;;;;;;26.05;29.11;101249.94;7396056;19;20022;-67
2022/06/15 11:56:31;;;;;;;4.55;1.33;;;;;;;26.27;29.21;101243.69;7398712;19;20074;-66
2022/06/15 11:59:08;;;;;;;3.00;1.25;;;;;;;26.48;28.90;101231.19;7396330;19;20011;-66
2022/06/15 12:01:43;;;;;;;3.88;1.42;;;;;;;26.70;27.77;101237.50;7398033;19;20018;-67
2022/06/15 12:04:38;;;;;;;5.72;1.63;;;;;;;26.90;28.25;101237.72;7400307;19;20035;-66
2022/06/15 12:07:19;;;;;;;3.20;1.48;;;;;;;27.11;27.69;101235.91;7395506;19;20023;-66
2022/06/15 12:10:01;;;;;;;3.55;1.50;;;;;;;27.31;26.95;101233.38;7397871;19;20489;-68